createdAt,value
2023-04-29T00:00:30.165Z,90.79
2023-04-29T00:02:36.073Z,91.21
2023-04-29T00:04:41.824Z,90.51
2023-04-29T00:06:52.844Z,90.64
2023-04-29T00:08:57.882Z,90.64
2023-04-29T00:11:04.319Z,90.86
2023-04-29T00:13:09.372Z,89.84
2023-04-29T00:15:14.746Z,89.88
2023-04-29T00:17:20.950Z,89.77
2023-04-29T00:19:25.976Z,90.11
2023-04-29T00:21:31.119Z,89.41
2023-04-29T00:23:39.402Z,89.66
2023-04-29T00:25:44.550Z,89.71
2023-04-29T00:27:49.899Z,89.63
2023-04-29T00:29:55.055Z,89.88
2023-04-29T00:32:00.393Z,89.63
2023-04-29T00:34:06.224Z,89.60
2023-04-29T00:36:11.370Z,89.60
2023-04-29T00:38:16.682Z,89.77
2023-04-29T00:40:24.635Z,89.73
2023-04-29T00:42:30.471Z,89.91
2023-04-29T00:44:38.257Z,89.57
2023-04-29T00:46:43.466Z,89.65
2023-04-29T00:48:48.755Z,89.92
2023-04-29T00:50:54.597Z,90.36
2023-04-29T00:52:59.690Z,90.46
2023-04-29T00:55:05.859Z,90.41
2023-04-29T00:57:13.791Z,90.43
2023-04-29T00:59:21.921Z,90.97
2023-04-29T01:01:27.488Z,91.05
2023-04-29T01:03:33.541Z,91.03
2023-04-29T01:05:39.159Z,91.27
2023-04-29T01:07:55.606Z,90.97
2023-04-29T01:10:06.932Z,91.22
2023-04-29T01:12:23.932Z,91.00
2023-04-29T01:14:32.450Z,90.93
2023-04-29T01:16:44.030Z,91.04
2023-04-29T01:18:54.325Z,90.84
2023-04-29T01:21:01.037Z,91.02
2023-04-29T01:23:05.910Z,91.09
2023-04-29T01:25:13.871Z,91.02
2023-04-29T01:27:30.527Z,91.22
2023-04-29T01:29:43.614Z,91.24
2023-04-29T01:32:01.385Z,91.07
2023-04-29T01:34:12.525Z,91.18
2023-04-29T01:36:29.252Z,90.93
2023-04-29T01:38:40.123Z,91.18
2023-04-29T01:40:57.038Z,91.13
2023-04-29T01:43:05.738Z,91.14
2023-04-29T01:45:13.830Z,91.17
2023-04-29T01:47:22.192Z,91.05
2023-04-29T01:49:27.997Z,91.06
2023-04-29T01:51:34.438Z,91.13
2023-04-29T01:53:40.782Z,91.27
2023-04-29T01:55:49.862Z,91.13
2023-04-29T01:57:54.888Z,91.36
2023-04-29T02:00:02.920Z,91.34
2023-04-29T02:02:10.571Z,91.37
2023-04-29T02:04:15.638Z,91.51
2023-04-29T02:06:20.843Z,91.13
2023-04-29T02:08:26.080Z,91.55
2023-04-29T02:10:31.383Z,91.31
2023-04-29T02:12:39.018Z,91.33
2023-04-29T02:14:44.067Z,91.59
2023-04-29T02:16:52.523Z,91.54
2023-04-29T02:18:57.586Z,91.86
2023-04-29T02:21:04.391Z,91.62
2023-04-29T02:23:09.477Z,91.26
2023-04-29T02:25:15.126Z,91.45
2023-04-29T02:27:20.277Z,91.27
2023-04-29T02:29:30.146Z,90.98
2023-04-29T02:31:35.792Z,90.69
2023-04-29T02:33:42.736Z,90.75
2023-04-29T02:35:49.970Z,90.66
2023-04-29T02:37:55.037Z,90.49
2023-04-29T02:40:00.113Z,89.92
2023-04-29T02:42:05.932Z,89.81
2023-04-29T02:44:11.277Z,89.55
2023-04-29T02:46:21.392Z,89.67
2023-04-29T02:48:27.584Z,89.45
2023-04-29T02:50:33.092Z,89.51
2023-04-29T02:52:39.815Z,89.48
2023-04-29T02:54:44.970Z,89.17
2023-04-29T02:56:50.210Z,89.50
2023-04-29T02:58:55.260Z,89.08
2023-04-29T03:01:00.313Z,88.30
2023-04-29T03:03:08.758Z,87.90
2023-04-29T03:05:14.272Z,88.14
2023-04-29T03:07:19.945Z,87.93
2023-04-29T03:09:24.968Z,88.40
2023-04-29T03:11:29.926Z,88.50
2023-04-29T03:13:35.886Z,88.21
2023-04-29T03:15:41.330Z,88.06
2023-04-29T03:17:46.711Z,88.14
2023-04-29T03:19:54.826Z,88.38
2023-04-29T03:22:00.000Z,88.64
2023-04-29T03:24:06.030Z,88.42
2023-04-29T03:26:11.911Z,88.81
2023-04-29T03:28:16.968Z,88.78
2023-04-29T03:30:24.756Z,88.58
2023-04-29T03:32:29.920Z,88.73
2023-04-29T03:34:35.698Z,88.80
2023-04-29T03:36:43.447Z,88.20
2023-04-29T03:38:48.446Z,88.45
2023-04-29T03:40:53.831Z,88.25
2023-04-29T03:42:58.817Z,88.12
2023-04-29T03:45:04.548Z,88.38
2023-04-29T03:47:09.838Z,88.41
2023-04-29T03:49:14.844Z,88.55
2023-04-29T03:51:19.946Z,88.07
2023-04-29T03:53:27.537Z,88.59
2023-04-29T03:55:32.576Z,87.71
2023-04-29T03:57:42.455Z,88.27
2023-04-29T03:59:50.778Z,88.44
2023-04-29T04:01:56.147Z,88.05
2023-04-29T04:04:01.387Z,87.99
2023-04-29T04:06:06.911Z,88.11
2023-04-29T04:08:11.976Z,88.16
2023-04-29T04:10:19.992Z,88.14
2023-04-29T04:12:24.922Z,87.89
2023-04-29T04:14:29.849Z,88.11
2023-04-29T04:16:34.844Z,88.51
2023-04-29T04:18:39.937Z,88.34
2023-04-29T04:20:44.893Z,88.09
2023-04-29T04:22:49.928Z,88.01
2023-04-29T04:24:54.965Z,88.49
2023-04-29T04:27:02.622Z,88.44
2023-04-29T04:29:08.694Z,88.78
2023-04-29T04:31:15.084Z,88.58
2023-04-29T04:33:20.292Z,88.71
2023-04-29T04:35:25.393Z,88.85
2023-04-29T04:37:30.421Z,88.82
2023-04-29T04:39:35.874Z,89.21
2023-04-29T04:41:41.942Z,89.22
2023-04-29T04:43:51.932Z,89.19
2023-04-29T04:45:57.572Z,89.13
2023-04-29T04:48:02.828Z,89.23
2023-04-29T04:50:09.365Z,89.47
2023-04-29T04:52:14.809Z,89.33
2023-04-29T04:54:20.108Z,89.37
2023-04-29T04:56:25.238Z,89.54
2023-04-29T04:58:31.744Z,89.31
2023-04-29T05:00:39.454Z,89.39
2023-04-29T05:02:44.887Z,89.35
2023-04-29T05:04:50.184Z,89.39
2023-04-29T05:06:55.140Z,89.41
2023-04-29T05:09:00.162Z,89.60
2023-04-29T05:11:06.107Z,89.76
2023-04-29T05:13:11.062Z,89.84
2023-04-29T05:15:19.361Z,89.73
2023-04-29T05:17:27.075Z,89.93
2023-04-29T05:19:32.258Z,89.87
2023-04-29T05:21:37.655Z,90.22
2023-04-29T05:23:43.663Z,90.19
2023-04-29T05:25:48.908Z,90.66
2023-04-29T05:27:53.939Z,90.29
2023-04-29T05:29:59.167Z,90.23
2023-04-29T05:32:04.511Z,90.23
2023-04-29T05:34:12.402Z,90.52
2023-04-29T05:36:20.231Z,90.32
2023-04-29T05:38:29.322Z,90.23
2023-04-29T05:40:34.540Z,90.17
2023-04-29T05:42:39.887Z,90.30
2023-04-29T05:44:45.123Z,89.78
2023-04-29T05:46:52.264Z,89.87
2023-04-29T05:48:57.487Z,89.53
2023-04-29T05:51:06.606Z,89.77
2023-04-29T05:53:11.557Z,89.48
2023-04-29T05:55:16.563Z,89.13
2023-04-29T05:57:24.632Z,88.74
2023-04-29T05:59:29.511Z,87.98
2023-04-29T06:01:34.818Z,87.74
2023-04-29T06:03:40.213Z,86.93
2023-04-29T06:05:45.916Z,87.35
2023-04-29T06:07:53.714Z,86.71
2023-04-29T06:09:59.949Z,86.95
2023-04-29T06:12:06.272Z,86.64
2023-04-29T06:14:11.264Z,85.68
2023-04-29T06:16:16.313Z,85.58
2023-04-29T06:18:22.675Z,85.69
2023-04-29T06:20:28.203Z,85.90
2023-04-29T06:22:33.358Z,84.97
2023-04-29T06:24:41.467Z,84.72
2023-04-29T06:26:46.987Z,84.08
2023-04-29T06:28:55.245Z,83.27
2023-04-29T06:31:00.712Z,83.12
2023-04-29T06:33:06.446Z,83.48
2023-04-29T06:35:12.188Z,81.94
2023-04-29T06:37:18.907Z,80.67
2023-04-29T06:39:23.893Z,80.35
2023-04-29T06:41:32.300Z,77.76
2023-04-29T06:43:37.516Z,76.07
2023-04-29T06:45:42.863Z,75.91
2023-04-29T06:47:48.353Z,74.17
2023-04-29T06:49:53.925Z,72.49
2023-04-29T06:51:59.938Z,71.71
2023-04-29T06:54:05.665Z,70.99
2023-04-29T06:56:16.690Z,70.69
2023-04-29T06:58:28.592Z,69.83
2023-04-29T07:00:34.711Z,68.31
2023-04-29T07:02:39.924Z,69.44
2023-04-29T07:04:45.270Z,71.20
2023-04-29T07:06:51.410Z,69.11
2023-04-29T07:08:57.148Z,67.99
2023-04-29T07:11:02.248Z,69.45
2023-04-29T07:13:07.231Z,68.07
2023-04-29T07:15:15.364Z,68.33
2023-04-29T07:17:21.013Z,67.39
2023-04-29T07:19:26.335Z,67.35
2023-04-29T07:21:31.794Z,65.86
2023-04-29T07:23:36.789Z,66.35
2023-04-29T07:25:41.758Z,65.15
2023-04-29T07:27:46.740Z,65.88
2023-04-29T07:29:54.634Z,65.60
2023-04-29T07:32:02.332Z,67.33
2023-04-29T07:34:10.440Z,66.54
2023-04-29T07:36:15.500Z,64.00
2023-04-29T07:38:21.744Z,63.32
2023-04-29T07:40:26.973Z,62.82
2023-04-29T07:42:32.019Z,63.01
2023-04-29T07:44:37.142Z,65.31
2023-04-29T07:46:42.147Z,64.07
2023-04-29T07:48:49.912Z,65.49
2023-04-29T07:50:55.002Z,64.12
2023-04-29T07:53:02.584Z,62.27
2023-04-29T07:55:08.639Z,62.08
2023-04-29T07:57:13.623Z,65.19
2023-04-29T07:59:21.626Z,67.48
2023-04-29T08:01:26.598Z,68.62
2023-04-29T08:03:31.673Z,67.66
2023-04-29T08:05:40.119Z,66.76
2023-04-29T08:07:45.283Z,65.52
2023-04-29T08:09:50.333Z,66.22
2023-04-29T08:11:55.510Z,67.49
2023-04-29T08:14:00.674Z,68.11
2023-04-29T08:16:05.860Z,67.64
2023-04-29T08:18:11.179Z,67.00
2023-04-29T08:20:16.654Z,67.00
2023-04-29T08:22:24.503Z,67.41
2023-04-29T08:24:29.937Z,66.35
2023-04-29T08:26:34.986Z,66.92
2023-04-29T08:28:43.775Z,68.13
2023-04-29T08:30:50.986Z,68.94
2023-04-29T08:32:56.080Z,68.69
2023-04-29T08:35:03.116Z,68.33
2023-04-29T08:37:08.383Z,69.30
2023-04-29T08:39:16.082Z,68.92
2023-04-29T08:41:28.554Z,68.62
2023-04-29T08:43:34.910Z,68.02
2023-04-29T08:45:40.779Z,65.72
2023-04-29T08:47:46.623Z,65.05
2023-04-29T08:49:54.527Z,66.18
2023-04-29T08:51:59.608Z,63.17
2023-04-29T08:54:04.632Z,65.05
2023-04-29T08:56:20.869Z,66.75
2023-04-29T08:58:32.908Z,67.91
2023-04-29T09:00:39.161Z,68.11
2023-04-29T09:02:48.681Z,67.00
2023-04-29T09:05:04.071Z,64.01
2023-04-29T09:07:10.925Z,66.57
2023-04-29T09:09:20.833Z,65.68
2023-04-29T09:11:30.419Z,62.69
2023-04-29T09:13:36.599Z,60.05
2023-04-29T09:15:43.084Z,59.82
2023-04-29T09:17:49.657Z,57.71
2023-04-29T09:19:57.219Z,58.98
2023-04-29T09:22:03.391Z,57.93
2023-04-29T09:24:08.488Z,56.90
2023-04-29T09:26:13.597Z,54.62
2023-04-29T09:28:21.232Z,54.70
2023-04-29T09:30:27.149Z,55.81
2023-04-29T09:32:32.300Z,55.66
2023-04-29T09:34:41.106Z,58.05
2023-04-29T09:36:48.396Z,58.22
2023-04-29T09:38:58.482Z,56.30
2023-04-29T09:41:16.028Z,56.98
2023-04-29T09:43:24.243Z,57.39
2023-04-29T09:45:39.546Z,56.95
2023-04-29T09:47:45.107Z,56.50
2023-04-29T09:49:50.298Z,56.85
2023-04-29T09:51:59.989Z,58.06
2023-04-29T09:54:23.083Z,54.19
2023-04-29T09:56:31.029Z,54.98
2023-04-29T09:58:40.725Z,53.93
2023-04-29T10:00:45.760Z,53.21
2023-04-29T10:02:54.957Z,52.82
2023-04-29T10:05:01.694Z,57.14
2023-04-29T10:07:07.782Z,56.03
2023-04-29T10:09:16.357Z,56.21
2023-04-29T10:11:21.929Z,55.45
2023-04-29T10:13:28.963Z,54.48
2023-04-29T10:15:43.229Z,56.09
2023-04-29T10:17:52.493Z,55.07
2023-04-29T10:20:06.455Z,55.14
2023-04-29T10:22:20.094Z,53.16
2023-04-29T10:24:26.959Z,53.29
2023-04-29T10:26:32.926Z,51.12
2023-04-29T10:28:40.703Z,50.97
2023-04-29T10:30:50.749Z,50.21
2023-04-29T10:32:57.888Z,51.55
2023-04-29T10:35:06.437Z,52.38
2023-04-29T10:37:12.903Z,51.29
2023-04-29T10:39:27.259Z,53.06
2023-04-29T10:41:39.240Z,53.26
2023-04-29T10:43:44.575Z,54.68
2023-04-29T10:45:53.948Z,51.52
2023-04-29T10:48:15.168Z,49.17
2023-04-29T10:50:22.222Z,49.00
2023-04-29T10:52:27.428Z,47.46
2023-04-29T10:54:32.403Z,48.72
2023-04-29T10:56:45.654Z,47.81
2023-04-29T10:58:50.743Z,47.76
2023-04-29T11:00:58.189Z,47.67
2023-04-29T11:03:05.452Z,47.91
2023-04-29T11:05:12.906Z,46.02
2023-04-29T11:07:32.222Z,45.16
2023-04-29T11:09:39.755Z,45.93
2023-04-29T11:11:46.710Z,47.64
2023-04-29T11:13:55.767Z,48.50
2023-04-29T11:16:10.979Z,47.75
2023-04-29T11:18:16.643Z,47.84
2023-04-29T11:20:24.849Z,46.36
2023-04-29T11:22:31.055Z,46.79
2023-04-29T11:24:37.933Z,49.37
2023-04-29T11:26:43.079Z,51.13
2023-04-29T11:28:52.123Z,51.08
2023-04-29T11:30:57.327Z,49.96
2023-04-29T11:33:05.436Z,50.69
2023-04-29T11:35:12.431Z,49.29
2023-04-29T11:37:27.433Z,46.70
2023-04-29T11:39:32.436Z,46.99
2023-04-29T11:41:40.302Z,45.51
2023-04-29T11:43:45.571Z,46.21
2023-04-29T11:45:50.877Z,45.02
2023-04-29T11:47:57.428Z,48.02
2023-04-29T11:50:11.077Z,48.62
2023-04-29T11:52:16.646Z,47.76
2023-04-29T11:54:24.943Z,47.16
2023-04-29T11:56:29.969Z,49.90
2023-04-29T11:58:35.066Z,50.69
2023-04-29T12:00:41.265Z,52.22
2023-04-29T12:02:48.821Z,52.79
2023-04-29T12:04:54.702Z,53.10
2023-04-29T12:07:03.331Z,53.65
2023-04-29T12:09:08.860Z,52.94
2023-04-29T12:11:14.167Z,51.79
2023-04-29T12:13:20.036Z,50.77
2023-04-29T12:15:26.600Z,51.76
2023-04-29T12:17:31.973Z,52.43
2023-04-29T12:19:38.862Z,54.32
2023-04-29T12:21:53.984Z,54.01
2023-04-29T12:24:07.601Z,56.40
2023-04-29T12:26:15.359Z,56.28
2023-04-29T12:28:27.046Z,55.55
2023-04-29T12:30:32.820Z,55.44
2023-04-29T12:32:42.195Z,53.98
2023-04-29T12:34:49.959Z,53.46
2023-04-29T12:36:54.968Z,54.09
2023-04-29T12:39:03.032Z,55.23
2023-04-29T12:41:08.313Z,53.46
2023-04-29T12:43:15.041Z,53.56
2023-04-29T12:45:32.402Z,52.09
2023-04-29T12:47:38.275Z,52.87
2023-04-29T12:49:45.581Z,53.11
2023-04-29T12:51:50.913Z,54.12
2023-04-29T12:53:56.156Z,52.64
2023-04-29T12:56:03.793Z,51.65
2023-04-29T12:58:09.876Z,52.96
2023-04-29T13:00:16.912Z,51.50
2023-04-29T13:02:24.854Z,52.66
2023-04-29T13:04:30.475Z,51.74
2023-04-29T13:06:39.589Z,52.72
2023-04-29T13:08:44.946Z,53.09
2023-04-29T13:10:49.958Z,52.55
2023-04-29T13:12:57.857Z,52.34
2023-04-29T13:15:02.803Z,52.93
2023-04-29T13:17:08.134Z,53.78
2023-04-29T13:21:26.186Z,54.34
2023-04-29T13:23:31.648Z,52.76
2023-04-29T13:25:40.347Z,53.09
2023-04-29T13:27:45.789Z,52.83
2023-04-29T13:29:54.027Z,51.64
2023-04-29T13:31:59.165Z,53.36
2023-04-29T13:34:04.430Z,52.00
2023-04-29T13:36:10.637Z,50.98
2023-04-29T13:38:15.987Z,51.69
2023-04-29T13:40:21.591Z,51.59
2023-04-29T13:42:27.345Z,52.14
2023-04-29T13:44:42.487Z,52.66
2023-04-29T13:46:54.245Z,51.97
2023-04-29T13:56:15.386Z,50.60
2023-04-29T13:58:40.045Z,51.42
2023-04-29T14:02:28.886Z,50.58
2023-04-29T14:04:34.087Z,50.19
2023-04-29T14:06:39.252Z,49.70
2023-04-29T14:08:44.580Z,49.85
2023-04-29T14:10:50.927Z,49.74
2023-04-29T14:12:56.191Z,50.67
2023-04-29T14:15:01.398Z,49.69
2023-04-29T14:17:06.313Z,50.76
2023-04-29T14:19:14.351Z,50.65
2023-04-29T14:21:22.754Z,52.12
2023-04-29T14:23:27.672Z,52.86
2023-04-29T14:25:33.947Z,52.38
2023-04-29T14:27:39.156Z,51.46
2023-04-29T14:29:44.130Z,51.95
2023-04-29T14:31:52.279Z,52.38
2023-04-29T14:33:57.456Z,52.24
2023-04-29T14:36:05.103Z,52.06
2023-04-29T14:38:10.692Z,52.38
2023-04-29T14:40:16.346Z,51.56
2023-04-29T14:42:21.882Z,51.46
2023-04-29T14:44:26.885Z,51.41
2023-04-29T14:46:32.303Z,52.41
2023-04-29T14:48:40.514Z,50.72
2023-04-29T14:50:45.986Z,50.19
2023-04-29T14:52:53.989Z,51.13
2023-04-29T14:54:58.853Z,51.38
2023-04-29T14:57:03.883Z,51.28
2023-04-29T14:59:09.075Z,51.45
2023-04-29T15:01:14.140Z,51.42
2023-04-29T15:03:23.209Z,51.53
2023-04-29T15:05:31.348Z,50.79
2023-04-29T15:07:36.971Z,49.66
2023-04-29T15:09:44.977Z,50.90
2023-04-29T15:11:50.458Z,50.34
2023-04-29T15:13:55.589Z,50.32
2023-04-29T15:16:00.613Z,51.19
2023-04-29T15:18:06.601Z,50.63
2023-04-29T15:20:13.623Z,51.04
2023-04-29T15:22:20.312Z,51.51
2023-04-29T15:24:25.125Z,51.34
2023-04-29T15:26:32.644Z,50.51
2023-04-29T15:28:39.603Z,48.55
2023-04-29T15:30:44.497Z,49.69
2023-04-29T15:32:52.103Z,50.72
2023-04-29T15:34:58.394Z,50.09
2023-04-29T15:37:03.600Z,51.79
2023-04-29T15:39:11.232Z,51.81
2023-04-29T15:41:16.486Z,52.69
2023-04-29T15:43:24.474Z,52.81
2023-04-29T15:45:29.482Z,52.37
2023-04-29T15:47:34.524Z,52.77
2023-04-29T15:49:41.257Z,52.35
2023-04-29T15:51:46.370Z,52.56
2023-04-29T15:53:51.879Z,52.52
2023-04-29T15:55:57.010Z,52.55
2023-04-29T15:58:01.927Z,52.52
2023-04-29T16:00:12.712Z,53.35
2023-04-29T16:02:17.744Z,51.91
2023-04-29T16:04:26.071Z,52.51
2023-04-29T16:06:31.309Z,51.98
2023-04-29T16:08:36.627Z,51.02
2023-04-29T16:10:41.867Z,51.25
2023-04-29T16:12:46.791Z,51.55
2023-04-29T16:14:51.769Z,51.99
2023-04-29T16:16:59.686Z,52.04
2023-04-29T16:19:04.662Z,52.31
2023-04-29T16:21:10.329Z,51.34
2023-04-29T16:23:15.280Z,51.99
2023-04-29T16:25:20.697Z,51.87
2023-04-29T16:27:30.216Z,52.02
2023-04-29T16:29:35.254Z,52.42
2023-04-29T16:31:41.614Z,52.33
2023-04-29T16:33:52.942Z,52.48
2023-04-29T16:35:58.462Z,52.65
2023-04-29T16:38:04.523Z,52.30
2023-04-29T16:40:12.406Z,53.07
2023-04-29T16:42:17.721Z,53.69
2023-04-29T16:44:26.853Z,54.95
2023-04-29T16:46:32.920Z,54.29
2023-04-29T16:48:38.095Z,54.52
2023-04-29T16:50:46.262Z,54.67
2023-04-29T16:52:52.539Z,54.93
2023-04-29T16:54:57.977Z,54.71
2023-04-29T16:57:03.400Z,54.78
2023-04-29T16:59:08.777Z,54.27
2023-04-29T17:01:14.305Z,54.29
2023-04-29T17:03:19.489Z,52.57
2023-04-29T17:05:26.229Z,52.75
2023-04-29T17:07:34.775Z,53.49
2023-04-29T17:09:40.717Z,54.02
2023-04-29T17:11:45.773Z,54.61
2023-04-29T17:13:50.835Z,55.34
2023-04-29T17:15:55.890Z,54.97
2023-04-29T17:18:01.144Z,55.90
2023-04-29T17:20:07.832Z,55.64
2023-04-29T17:22:13.244Z,54.78
2023-04-29T17:24:21.016Z,54.12
2023-04-29T17:26:26.144Z,54.72
2023-04-29T17:28:31.395Z,54.92
2023-04-29T17:30:36.603Z,55.11
2023-04-29T17:32:44.111Z,55.44
2023-04-29T17:34:49.588Z,56.02
2023-04-29T17:36:55.132Z,55.63
2023-04-29T17:39:00.325Z,54.74
2023-04-29T17:41:08.155Z,53.84
2023-04-29T17:43:13.419Z,51.99
2023-04-29T17:45:21.155Z,51.94
2023-04-29T17:47:26.693Z,52.75
2023-04-29T17:49:32.060Z,53.08
2023-04-29T17:51:38.352Z,52.46
2023-04-29T17:53:43.442Z,51.81
2023-04-29T17:55:48.963Z,52.10
2023-04-29T17:57:58.599Z,52.45
2023-04-29T18:00:05.042Z,52.79
2023-04-29T18:02:11.163Z,53.50
2023-04-29T18:04:16.412Z,54.29
2023-04-29T18:06:22.355Z,54.12
2023-04-29T18:08:27.513Z,54.50
2023-04-29T18:10:32.660Z,54.91
2023-04-29T18:12:38.002Z,55.10
2023-04-29T18:14:46.990Z,54.99
2023-04-29T18:16:53.781Z,55.33
2023-04-29T18:18:59.116Z,54.73
2023-04-29T18:21:04.153Z,54.79
2023-04-29T18:23:09.304Z,54.44
2023-04-29T18:25:14.523Z,54.24
2023-04-29T18:27:20.226Z,53.39
2023-04-29T18:29:25.721Z,53.17
2023-04-29T18:31:33.930Z,53.20
2023-04-29T18:33:39.270Z,53.28
2023-04-29T18:35:44.685Z,52.41
2023-04-29T18:37:49.819Z,52.05
2023-04-29T18:39:55.169Z,52.47
2023-04-29T18:42:01.649Z,52.05
2023-04-29T18:44:08.382Z,51.24
2023-04-29T18:46:13.666Z,50.57
2023-04-29T18:48:23.933Z,51.51
2023-04-29T18:50:32.325Z,51.39
2023-04-29T18:52:38.285Z,51.49
2023-04-29T18:54:43.342Z,51.04
2023-04-29T18:56:51.304Z,50.98
2023-04-29T18:58:56.741Z,51.24
2023-04-29T19:01:03.427Z,51.41
2023-04-29T19:03:08.788Z,51.63
2023-04-29T19:05:16.868Z,52.00
2023-04-29T19:07:24.758Z,51.87
2023-04-29T19:09:32.139Z,53.06
2023-04-29T19:11:38.206Z,53.01
2023-04-29T19:13:43.360Z,52.66
2023-04-29T19:15:50.917Z,53.36
2023-04-29T19:17:56.348Z,53.31
2023-04-29T19:20:01.496Z,53.25
2023-04-29T19:22:09.501Z,53.95
2023-04-29T19:24:14.433Z,54.59
2023-04-29T19:26:21.830Z,54.38
2023-04-29T19:28:27.245Z,54.63
2023-04-29T19:30:33.129Z,54.56
2023-04-29T19:32:40.006Z,54.53
2023-04-29T19:34:45.042Z,55.06
2023-04-29T19:36:50.772Z,54.71
2023-04-29T19:38:58.638Z,55.17
2023-04-29T19:41:03.694Z,55.78
2023-04-29T19:43:09.468Z,56.04
2023-04-29T19:45:15.456Z,55.95
2023-04-29T19:47:24.709Z,56.00
2023-04-29T19:49:30.082Z,55.48
2023-04-29T19:51:37.311Z,55.29
2023-04-29T19:53:42.701Z,55.53
2023-04-29T19:55:52.013Z,55.64
2023-04-29T19:57:57.676Z,56.58
2023-04-29T20:00:02.916Z,57.12
2023-04-29T20:02:09.483Z,56.92
2023-04-29T20:04:14.679Z,57.41
2023-04-29T20:06:22.160Z,58.00
2023-04-29T20:08:27.771Z,58.43
2023-04-29T20:10:33.251Z,58.36
2023-04-29T20:12:42.148Z,59.41
2023-04-29T20:14:47.711Z,60.08
2023-04-29T20:16:54.350Z,60.65
2023-04-29T20:18:59.592Z,61.07
2023-04-29T20:21:05.559Z,61.08
2023-04-29T20:23:10.579Z,62.32
2023-04-29T20:25:15.688Z,62.61
2023-04-29T20:27:23.177Z,63.19
2023-04-29T20:29:30.840Z,63.33
2023-04-29T20:31:35.934Z,64.14
2023-04-29T20:33:42.102Z,64.09
2023-04-29T20:35:47.396Z,64.63
2023-04-29T20:37:52.731Z,65.36
2023-04-29T20:40:00.543Z,66.44
2023-04-29T20:42:06.402Z,66.79
2023-04-29T20:44:12.913Z,67.11
2023-04-29T20:46:22.229Z,67.36
2023-04-29T20:48:30.426Z,67.70
2023-04-29T20:50:35.890Z,68.02
2023-04-29T20:52:44.200Z,68.92
2023-04-29T20:54:52.037Z,68.36
2023-04-29T20:56:57.554Z,68.42
2023-04-29T20:59:06.712Z,69.48
2023-04-29T21:01:12.984Z,69.91
2023-04-29T21:03:22.577Z,69.26
2023-04-29T21:05:27.881Z,69.83
2023-04-29T21:07:33.126Z,70.32
2023-04-29T21:09:39.525Z,70.08
2023-04-29T21:11:44.742Z,71.46
2023-04-29T21:13:51.270Z,71.46
2023-04-29T21:15:56.567Z,71.18
2023-04-29T21:18:04.654Z,71.83
2023-04-29T21:20:13.986Z,73.24
2023-04-29T21:22:19.809Z,73.10
2023-04-29T21:24:25.002Z,73.54
2023-04-29T21:26:30.079Z,73.51
2023-04-29T21:28:35.143Z,74.23
2023-04-29T21:30:41.183Z,74.38
2023-04-29T21:32:46.433Z,74.13
2023-04-29T21:34:52.044Z,74.33
2023-04-29T21:37:00.116Z,75.04
2023-04-29T21:39:06.478Z,74.48
2023-04-29T21:41:22.908Z,75.06
2023-04-29T21:43:30.243Z,76.30
2023-04-29T21:45:35.629Z,75.43
2023-04-29T21:47:46.128Z,75.40
2023-04-29T21:49:52.065Z,75.83
2023-04-29T21:52:02.119Z,76.07
2023-04-29T21:54:08.854Z,76.62
2023-04-29T21:56:14.069Z,76.31
2023-04-29T21:58:21.615Z,76.74
2023-04-29T22:00:34.128Z,77.84
2023-04-29T22:02:43.716Z,76.81
2023-04-29T22:04:51.674Z,77.21
2023-04-29T22:06:59.656Z,78.40
2023-04-29T22:09:05.426Z,77.51
2023-04-29T22:11:10.865Z,78.25
2023-04-29T22:13:16.210Z,78.66
2023-04-29T22:15:28.879Z,78.58
2023-04-29T22:17:34.820Z,78.18
2023-04-29T22:19:40.105Z,78.44
2023-04-29T22:21:47.614Z,78.56
2023-04-29T22:23:55.595Z,78.95
2023-04-29T22:26:03.156Z,79.64
2023-04-29T22:28:21.127Z,80.47
2023-04-29T22:30:27.383Z,80.23
2023-04-29T22:32:33.127Z,80.77
2023-04-29T22:34:39.160Z,79.92
2023-04-29T22:36:44.327Z,81.21
2023-04-29T22:38:49.846Z,80.43
2023-04-29T22:40:57.944Z,80.37
2023-04-29T22:43:03.913Z,80.72
2023-04-29T22:45:11.312Z,81.69
2023-04-29T22:47:17.804Z,81.67
2023-04-29T22:49:23.527Z,81.55
2023-04-29T22:51:32.545Z,81.31
2023-04-29T22:53:38.722Z,82.26
2023-04-29T22:55:44.133Z,82.56
2023-04-29T22:57:56.678Z,82.31
2023-04-29T23:00:01.968Z,82.75
2023-04-29T23:02:08.243Z,82.96
2023-04-29T23:04:13.496Z,82.27
2023-04-29T23:06:21.739Z,82.61
2023-04-29T23:08:26.938Z,83.06
2023-04-29T23:10:32.092Z,82.99
2023-04-29T23:12:37.218Z,83.21
2023-04-29T23:14:47.445Z,83.76
2023-04-29T23:16:54.840Z,83.47
2023-04-29T23:19:00.504Z,83.25
2023-04-29T23:21:08.060Z,83.12
2023-04-29T23:23:17.445Z,83.00
2023-04-29T23:25:27.135Z,83.58
2023-04-29T23:27:32.837Z,84.03
2023-04-29T23:29:38.633Z,83.98
2023-04-29T23:31:47.261Z,84.07
2023-04-29T23:33:54.409Z,83.85
2023-04-29T23:36:00.025Z,83.93
2023-04-29T23:38:05.791Z,84.10
2023-04-29T23:40:12.262Z,84.05
2023-04-29T23:42:17.618Z,83.78
2023-04-29T23:44:23.016Z,84.60
2023-04-29T23:46:28.174Z,84.79
2023-04-29T23:48:39.065Z,84.73
2023-04-29T23:50:44.277Z,85.08
2023-04-29T23:52:50.409Z,84.76
2023-04-29T23:54:55.445Z,85.05
2023-04-29T23:57:00.532Z,84.88
2023-04-29T23:59:05.660Z,85.15
